Time,TemperatureF,DewpointF,PressureIn,WindDirection,WindDirectionDegrees,WindSpeedMPH,WindSpeedGustMPH,Humidity,HourlyPrecipIn,Conditions,Clouds,dailyrainin,SoftwareType,DateUTC
2013-04-13 00:00:00,80.4,71.0,29.97,ESE,112,0.0,0.0,73,0.00,,---,1.73,VWS V13.01,2013-04-13 04:00:00,
2013-04-13 00:05:00,80.4,71.0,29.97,NE,45,2.0,2.0,73,0.00,,---,0.00,VWS V13.01,2013-04-13 04:05:00,
2013-04-13 00:10:00,80.4,71.0,29.97,ENE,68,3.5,3.5,73,0.00,,---,0.00,VWS V13.01,2013-04-13 04:10:00,
2013-04-13 00:15:00,80.4,71.0,29.96,ENE,68,2.9,2.9,73,0.00,,---,0.00,VWS V13.01,2013-04-13 04:15:00,
2013-04-13 00:20:00,80.4,71.0,29.96,ENE,68,5.8,5.8,73,0.00,,---,0.00,VWS V13.01,2013-04-13 04:20:00,
2013-04-13 00:25:00,80.4,71.0,29.96,East,90,0.0,0.0,73,0.00,,---,0.00,VWS V13.01,2013-04-13 04:25:00,
2013-04-13 00:30:00,80.4,71.0,29.96,ENE,68,2.4,2.4,73,0.00,,---,0.00,VWS V13.01,2013-04-13 04:30:00,
2013-04-13 00:35:00,80.4,71.0,29.96,ENE,68,8.0,8.0,73,0.00,,---,0.00,VWS V13.01,2013-04-13 04:35:00,
2013-04-13 00:40:00,80.4,71.0,29.95,SE,135,5.8,5.8,73,0.00,,---,0.00,VWS V13.01,2013-04-13 04:40:00,
2013-04-13 00:45:00,80.2,70.8,29.95,East,90,5.8,5.8,73,0.00,,---,0.00,VWS V13.01,2013-04-13 04:45:00,
2013-04-13 00:50:00,80.2,71.2,29.95,East,90,4.6,4.6,74,0.00,,---,0.00,VWS V13.01,2013-04-13 04:50:00,
2013-04-13 00:55:00,80.2,71.2,29.95,East,90,2.2,2.2,74,0.00,,---,0.00,VWS V13.01,2013-04-13 04:55:00,
2013-04-13 01:00:00,80.2,71.2,29.94,East,90,4.6,4.6,74,0.00,,---,0.00,VWS V13.01,2013-04-13 05:00:00,
2013-04-13 01:05:00,80.2,71.2,29.94,East,90,4.4,4.4,74,0.00,,---,0.00,VWS V13.01,2013-04-13 05:05:00,
2013-04-13 01:10:00,80.2,71.6,29.94,ENE,68,6.9,6.9,75,0.00,,---,0.00,VWS V13.01,2013-04-13 05:10:00,
2013-04-13 01:15:00,80.0,71.0,29.94,ENE,68,2.2,2.2,74,0.00,,---,0.00,VWS V13.01,2013-04-13 05:15:00,
2013-04-13 01:20:00,79.8,71.6,29.94,ESE,112,7.6,7.6,76,0.00,,---,0.00,VWS V13.01,2013-04-13 05:20:00,
2013-04-13 01:25:00,79.7,71.9,29.94,ESE,112,2.0,2.0,77,0.00,,---,0.00,VWS V13.01,2013-04-13 05:25:00,
2013-04-13 01:30:00,79.5,72.0,29.93,ENE,68,2.9,2.9,78,0.00,,---,0.00,VWS V13.01,2013-04-13 05:30:00,
2013-04-13 01:35:00,79.3,72.2,29.93,East,90,0.0,0.0,79,0.00,,---,0.00,VWS V13.01,2013-04-13 05:35:00,
2013-04-13 01:40:00,79.3,72.2,29.93,ESE,112,0.0,0.0,79,0.00,,---,0.00,VWS V13.01,2013-04-13 05:40:00,
2013-04-13 01:45:00,79.3,72.2,29.93,SE,135,0.0,0.0,79,0.00,,---,0.00,VWS V13.01,2013-04-13 05:45:00,
2013-04-13 01:50:00,79.3,72.2,29.93,East,90,0.0,0.0,79,0.00,,---,0.00,VWS V13.01,2013-04-13 05:50:00,
2013-04-13 01:55:00,79.3,72.2,29.93,ESE,112,0.0,0.0,79,0.00,,---,0.00,VWS V13.01,2013-04-13 05:55:00,
2013-04-13 02:00:00,79.3,72.2,29.92,ENE,68,0.6,0.6,79,0.00,,---,0.00,VWS V13.01,2013-04-13 06:00:00,
2013-04-13 02:05:00,79.3,71.8,29.92,SE,135,0.0,0.0,78,0.00,,---,0.00,VWS V13.01,2013-04-13 06:05:00,
2013-04-13 02:10:00,79.5,72.0,29.92,NE,45,0.0,0.0,78,0.00,,---,0.00,VWS V13.01,2013-04-13 06:10:00,
2013-04-13 02:15:00,79.5,72.0,29.92,East,90,0.0,0.0,78,0.04,,---,0.04,VWS V13.01,2013-04-13 06:15:00,
2013-04-13 02:20:00,78.9,71.8,29.92,SE,135,2.4,2.4,79,0.06,,---,0.06,VWS V13.01,2013-04-13 06:20:00,
2013-04-13 02:25:00,78.6,71.6,29.91,ENE,68,0.0,0.0,79,0.06,,---,0.06,VWS V13.01,2013-04-13 06:25:00,
2013-04-13 02:30:00,78.6,71.9,29.92,SE,135,0.0,0.0,80,0.08,,---,0.08,VWS V13.01,2013-04-13 06:30:00,
2013-04-13 02:35:00,78.6,71.9,29.92,SE,135,1.5,1.5,80,0.12,,---,0.12,VWS V13.01,2013-04-13 06:35:00,
2013-04-13 02:40:00,78.2,71.9,29.92,SE,135,0.0,1.7,81,0.12,,---,0.12,VWS V13.01,2013-04-13 06:40:00,
2013-04-13 02:45:00,78.0,71.7,29.92,South,180,0.0,0.0,81,0.16,,---,0.17,VWS V13.01,2013-04-13 06:45:00,
2013-04-13 02:50:00,77.5,71.6,29.92,South,180,0.0,0.0,82,0.22,,---,0.22,VWS V13.01,2013-04-13 06:50:00,
2013-04-13 02:55:00,77.3,71.7,29.91,South,180,0.0,0.0,83,0.24,,---,0.24,VWS V13.01,2013-04-13 06:55:00,
2013-04-13 03:00:00,77.1,71.5,29.91,South,180,2.4,2.4,83,0.24,,---,0.24,VWS V13.01,2013-04-13 07:00:00,
2013-04-13 03:05:00,77.3,71.7,29.91,SSE,158,0.0,0.0,83,0.24,,---,0.24,VWS V13.01,2013-04-13 07:05:00,
2013-04-13 03:10:00,77.5,71.9,29.91,SSE,158,0.0,0.0,83,0.24,,---,0.24,VWS V13.01,2013-04-13 07:10:00,
2013-04-13 03:15:00,77.5,71.9,29.92,SSE,158,0.0,0.0,83,0.18,,---,0.24,VWS V13.01,2013-04-13 07:15:00,
2013-04-13 03:20:00,77.5,71.9,29.92,SE,135,0.0,0.0,83,0.18,,---,0.24,VWS V13.01,2013-04-13 07:20:00,
2013-04-13 03:25:00,77.5,71.9,29.92,SE,135,0.0,0.0,83,0.16,,---,0.24,VWS V13.01,2013-04-13 07:25:00,
2013-04-13 03:30:00,77.7,72.1,29.92,South,180,0.0,0.0,83,0.16,,---,0.24,VWS V13.01,2013-04-13 07:30:00,
2013-04-13 03:35:00,77.7,72.1,29.92,SE,135,0.0,0.0,83,0.12,,---,0.24,VWS V13.01,2013-04-13 07:35:00,
2013-04-13 03:40:00,77.7,72.1,29.91,SSE,158,0.0,0.0,83,0.10,,---,0.24,VWS V13.01,2013-04-13 07:40:00,
2013-04-13 03:45:00,77.7,72.1,29.92,SE,135,0.0,0.0,83,0.04,,---,0.24,VWS V13.01,2013-04-13 07:45:00,
2013-04-13 03:50:00,77.9,72.0,29.91,SE,135,0.0,0.0,82,0.02,,---,0.24,VWS V13.01,2013-04-13 07:50:00,
2013-04-13 03:55:00,77.7,71.8,29.91,SSE,158,0.0,0.0,82,0.00,,---,0.24,VWS V13.01,2013-04-13 07:55:00,
2013-04-13 04:00:00,77.7,71.8,29.91,SSE,158,0.0,0.0,82,0.00,,---,0.24,VWS V13.01,2013-04-13 08:00:00,
2013-04-13 04:05:00,77.7,71.8,29.91,SE,135,0.0,0.0,82,0.00,,---,0.24,VWS V13.01,2013-04-13 08:05:00,
2013-04-13 04:10:00,77.7,71.8,29.91,SSE,158,0.0,0.0,82,0.00,,---,0.24,VWS V13.01,2013-04-13 08:10:00,
2013-04-13 04:15:00,77.7,71.8,29.92,SSW,202,0.0,0.0,82,0.00,,---,0.24,VWS V13.01,2013-04-13 08:15:00,
2013-04-13 04:20:00,77.7,71.8,29.92,SE,135,0.0,0.0,82,0.00,,---,0.24,VWS V13.01,2013-04-13 08:20:00,
2013-04-13 04:26:00,77.7,71.4,29.92,South,180,0.6,0.6,81,0.00,,---,0.24,VWS V13.01,2013-04-13 08:26:00,
2013-04-13 04:31:00,77.7,71.4,29.92,SE,135,0.0,0.0,81,0.00,,---,0.24,VWS V13.01,2013-04-13 08:31:00,
2013-04-13 04:36:00,77.7,71.4,29.92,SSE,158,0.0,0.0,81,0.00,,---,0.24,VWS V13.01,2013-04-13 08:36:00,
2013-04-13 04:41:00,77.7,71.4,29.92,SSE,158,0.0,0.0,81,0.00,,---,0.24,VWS V13.01,2013-04-13 08:41:00,
2013-04-13 04:46:00,77.7,71.4,29.92,WSW,248,0.0,0.0,81,0.00,,---,0.24,VWS V13.01,2013-04-13 08:46:00,
2013-04-13 04:51:00,77.7,71.4,29.93,South,180,0.0,0.0,81,0.00,,---,0.24,VWS V13.01,2013-04-13 08:51:00,
2013-04-13 04:56:00,77.5,70.8,29.93,South,180,0.0,0.0,80,0.00,,---,0.24,VWS V13.01,2013-04-13 08:56:00,
2013-04-13 05:01:00,77.3,71.0,29.93,SSW,202,0.0,0.0,81,0.00,,---,0.24,VWS V13.01,2013-04-13 09:01:00,
2013-04-13 05:06:00,77.1,70.8,29.94,South,180,0.0,0.0,81,0.00,,---,0.24,VWS V13.01,2013-04-13 09:06:00,
2013-04-13 05:11:00,77.1,70.8,29.94,South,180,0.0,0.0,81,0.00,,---,0.24,VWS V13.01,2013-04-13 09:11:00,
2013-04-13 05:17:00,77.0,70.7,29.94,SSW,202,0.0,0.0,81,0.00,,---,0.24,VWS V13.01,2013-04-13 09:17:00,
2013-04-13 05:22:00,76.8,70.5,29.94,South,180,0.0,0.0,81,0.00,,---,0.24,VWS V13.01,2013-04-13 09:22:00,
2013-04-13 05:27:00,76.8,70.5,29.94,SSW,202,0.0,0.0,81,0.00,,---,0.24,VWS V13.01,2013-04-13 09:27:00,
2013-04-13 05:32:00,76.6,70.3,29.94,South,180,0.0,0.0,81,0.00,,---,0.24,VWS V13.01,2013-04-13 09:32:00,
2013-04-13 05:37:00,76.6,70.3,29.94,South,180,0.0,0.0,81,0.00,,---,0.24,VWS V13.01,2013-04-13 09:37:00,
2013-04-13 05:43:00,76.6,70.3,29.94,South,180,0.0,0.0,81,0.00,,---,0.24,VWS V13.01,2013-04-13 09:43:00,
2013-04-13 05:48:00,76.6,70.3,29.94,South,180,0.0,0.0,81,0.00,,---,0.24,VWS V13.01,2013-04-13 09:48:00,
2013-04-13 05:53:00,76.6,70.3,29.94,SE,135,0.0,0.0,81,0.00,,---,0.24,VWS V13.01,2013-04-13 09:53:00,
2013-04-13 05:58:00,76.6,70.7,29.94,SE,135,0.0,0.0,82,0.00,,---,0.24,VWS V13.01,2013-04-13 09:58:00,
2013-04-13 06:03:00,76.6,70.3,29.94,SSE,158,0.0,0.0,81,0.00,,---,0.24,VWS V13.01,2013-04-13 10:03:00,
2013-04-13 06:08:00,76.4,70.1,29.95,SSW,202,0.0,0.0,81,0.00,,---,0.24,VWS V13.01,2013-04-13 10:08:00,
2013-04-13 06:13:00,76.2,69.9,29.95,South,180,0.0,0.0,81,0.00,,---,0.24,VWS V13.01,2013-04-13 10:13:00,
2013-04-13 06:18:00,76.2,70.3,29.95,South,180,0.0,0.0,82,0.00,,---,0.24,VWS V13.01,2013-04-13 10:18:00,
2013-04-13 06:23:00,76.6,70.7,29.95,South,180,0.0,0.0,82,0.00,,---,0.24,VWS V13.01,2013-04-13 10:23:00,
2013-04-13 06:29:00,76.6,70.3,29.95,SSE,158,0.0,0.0,81,0.00,,---,0.24,VWS V13.01,2013-04-13 10:29:00,
2013-04-13 06:34:00,76.6,70.3,29.95,SSE,158,0.0,0.0,81,0.00,,---,0.24,VWS V13.01,2013-04-13 10:34:00,
2013-04-13 06:39:00,76.6,70.3,29.95,SSE,158,0.0,0.0,81,0.00,,---,0.24,VWS V13.01,2013-04-13 10:39:00,
2013-04-13 06:44:00,76.6,70.3,29.95,SSE,158,0.0,0.0,81,0.00,,---,0.24,VWS V13.01,2013-04-13 10:44:00,
2013-04-13 06:49:00,76.8,70.5,29.95,SSE,158,0.0,0.0,81,0.00,,---,0.24,VWS V13.01,2013-04-13 10:49:00,
2013-04-13 06:54:00,77.0,70.7,29.95,SE,135,1.7,1.7,81,0.00,,---,0.24,VWS V13.01,2013-04-13 10:54:00,
2013-04-13 06:59:00,77.1,70.5,29.95,SSE,158,0.0,0.0,80,0.00,,---,0.24,VWS V13.01,2013-04-13 10:59:00,
2013-04-13 07:04:00,77.5,70.8,29.95,SE,135,0.0,0.0,80,0.00,,---,0.24,VWS V13.01,2013-04-13 11:04:00,
2013-04-13 07:09:00,77.7,71.0,29.96,SE,135,0.0,0.0,80,0.00,,---,0.24,VWS V13.01,2013-04-13 11:09:00,
2013-04-13 07:14:00,77.7,71.0,29.96,SSE,158,0.0,0.0,80,0.00,,---,0.24,VWS V13.01,2013-04-13 11:14:00,
2013-04-13 07:20:00,78.0,71.0,29.96,SSE,158,0.0,0.0,79,0.00,,---,0.24,VWS V13.01,2013-04-13 11:20:00,
2013-04-13 07:25:00,78.2,71.2,29.96,South,180,4.6,4.6,79,0.00,,---,0.24,VWS V13.01,2013-04-13 11:25:00,
2013-04-13 07:30:00,78.4,71.0,29.96,ESE,112,4.2,4.2,78,0.00,,---,0.24,VWS V13.01,2013-04-13 11:30:00,
2013-04-13 07:35:00,78.4,71.0,29.97,SSE,158,4.0,4.0,78,0.00,,---,0.24,VWS V13.01,2013-04-13 11:35:00,
2013-04-13 07:40:00,78.6,71.2,29.96,South,180,2.2,2.2,78,0.00,,---,0.24,VWS V13.01,2013-04-13 11:40:00,
2013-04-13 07:45:00,78.6,71.2,29.96,SSE,158,0.0,0.0,78,0.00,,---,0.24,VWS V13.01,2013-04-13 11:45:00,
2013-04-13 07:50:00,78.9,71.5,29.96,South,180,4.2,4.2,78,0.00,,---,0.24,VWS V13.01,2013-04-13 11:50:00,
2013-04-13 07:56:00,79.1,71.3,29.97,ESE,112,4.9,4.9,77,0.00,,---,0.24,VWS V13.01,2013-04-13 11:56:00,
2013-04-13 08:01:00,79.3,71.5,29.97,SSE,158,1.5,1.5,77,0.00,,---,0.24,VWS V13.01,2013-04-13 12:01:00,
2013-04-13 08:06:00,79.5,71.7,29.97,ESE,112,0.6,0.6,77,0.00,,---,0.24,VWS V13.01,2013-04-13 12:06:00,
2013-04-13 08:11:00,79.8,71.6,29.97,SE,135,0.0,0.0,76,0.00,,---,0.24,VWS V13.01,2013-04-13 12:11:00,
2013-04-13 08:16:00,80.0,71.8,29.97,SE,135,2.2,2.2,76,0.00,,---,0.24,VWS V13.01,2013-04-13 12:16:00,
2013-04-13 08:21:00,80.4,71.8,29.97,SSE,158,0.0,0.0,75,0.00,,---,0.24,VWS V13.01,2013-04-13 12:21:00,
2013-04-13 08:27:00,80.6,71.9,29.97,ESE,112,5.1,5.1,75,0.00,,---,0.24,VWS V13.01,2013-04-13 12:27:00,
2013-04-13 08:32:00,80.7,71.7,29.97,SE,135,4.4,4.6,74,0.00,,---,0.24,VWS V13.01,2013-04-13 12:32:00,
2013-04-13 08:37:00,80.9,71.8,29.97,East,90,4.6,4.6,74,0.00,,---,0.24,VWS V13.01,2013-04-13 12:37:00,
2013-04-13 08:42:00,81.1,72.0,29.97,NE,45,0.0,0.6,74,0.00,,---,0.24,VWS V13.01,2013-04-13 12:42:00,
2013-04-13 08:47:00,81.5,72.4,29.98,ENE,68,2.2,2.2,74,0.00,,---,0.24,VWS V13.01,2013-04-13 12:47:00,
2013-04-13 08:52:00,81.8,72.3,29.97,East,90,2.9,2.9,73,0.00,,---,0.24,VWS V13.01,2013-04-13 12:52:00,
2013-04-13 08:57:00,82.2,72.7,29.98,ESE,112,3.1,5.1,73,0.00,,---,0.24,VWS V13.01,2013-04-13 12:57:00,
2013-04-13 09:02:00,82.2,71.9,29.98,ESE,112,9.1,9.1,71,0.00,,---,0.24,VWS V13.01,2013-04-13 13:02:00,
2013-04-13 09:07:00,82.7,72.3,29.98,SE,135,1.1,1.1,71,0.00,,---,0.24,VWS V13.01,2013-04-13 13:07:00,
2013-04-13 09:13:00,83.1,72.3,29.98,SE,135,8.5,8.5,70,0.00,,---,0.24,VWS V13.01,2013-04-13 13:13:00,
2013-04-13 09:18:00,83.1,71.4,29.98,SSE,158,1.7,1.7,68,0.00,,---,0.24,VWS V13.01,2013-04-13 13:18:00,
2013-04-13 09:23:00,83.4,72.2,29.98,ENE,68,0.0,3.1,69,0.00,,---,0.24,VWS V13.01,2013-04-13 13:23:00,
2013-04-13 09:28:00,83.6,72.4,29.98,ENE,68,2.0,2.0,69,0.00,,---,0.24,VWS V13.01,2013-04-13 13:28:00,
2013-04-13 09:33:00,83.8,72.6,29.98,East,90,8.9,8.9,69,0.00,,---,0.24,VWS V13.01,2013-04-13 13:33:00,
2013-04-13 09:38:00,84.0,73.2,29.98,ENE,68,4.6,4.6,70,0.00,,---,0.24,VWS V13.01,2013-04-13 13:38:00,
2013-04-13 09:43:00,83.8,73.0,29.98,ENE,68,2.0,2.0,70,0.00,,---,0.24,VWS V13.01,2013-04-13 13:43:00,
2013-04-13 09:49:00,83.8,73.4,29.97,ESE,112,8.5,8.5,71,0.00,,---,0.24,VWS V13.01,2013-04-13 13:49:00,
2013-04-13 09:54:00,83.6,72.8,29.98,ENE,68,10.7,10.7,70,0.00,,---,0.24,VWS V13.01,2013-04-13 13:54:00,
2013-04-13 09:59:00,83.8,73.4,29.98,ENE,68,6.4,6.4,71,0.00,,---,0.24,VWS V13.01,2013-04-13 13:59:00,
2013-04-13 10:04:00,83.8,73.0,29.98,ENE,68,6.2,6.2,70,0.00,,---,0.24,VWS V13.01,2013-04-13 14:04:00,
2013-04-13 10:09:00,84.2,72.9,29.98,ESE,112,11.8,11.8,69,0.00,,---,0.24,VWS V13.01,2013-04-13 14:09:00,
2013-04-13 10:14:00,84.5,72.8,29.98,East,90,7.6,12.3,68,0.00,,---,0.24,VWS V13.01,2013-04-13 14:14:00,
2013-04-13 10:19:00,84.7,72.5,29.98,ENE,68,10.9,10.9,67,0.00,,---,0.24,VWS V13.01,2013-04-13 14:19:00,
2013-04-13 10:24:00,84.7,73.0,29.98,ESE,112,10.5,10.5,68,0.00,,---,0.24,VWS V13.01,2013-04-13 14:24:00,
2013-04-13 10:29:00,84.7,72.1,29.97,ENE,68,12.9,12.9,66,0.00,,---,0.24,VWS V13.01,2013-04-13 14:29:00,
2013-04-13 10:34:00,84.9,72.7,29.98,East,90,12.0,12.0,67,0.00,,---,0.24,VWS V13.01,2013-04-13 14:34:00,
2013-04-13 10:39:00,85.2,73.0,29.98,ESE,112,4.6,4.6,67,0.00,,---,0.24,VWS V13.01,2013-04-13 14:39:00,
2013-04-13 10:44:00,85.2,73.0,29.98,ESE,112,6.9,6.9,67,0.00,,---,0.24,VWS V13.01,2013-04-13 14:44:00,
2013-04-13 10:49:00,85.2,73.4,29.98,East,90,12.9,12.9,68,0.00,,---,0.24,VWS V13.01,2013-04-13 14:49:00,
2013-04-13 10:54:00,85.6,73.8,29.98,East,90,15.4,15.4,68,0.00,,---,0.24,VWS V13.01,2013-04-13 14:54:00,
2013-04-13 10:59:00,85.8,74.0,29.98,ENE,68,14.9,14.9,68,0.00,,---,0.24,VWS V13.01,2013-04-13 14:59:00,
2013-04-13 11:04:00,85.8,74.0,29.98,SE,135,12.9,12.9,68,0.00,,---,0.24,VWS V13.01,2013-04-13 15:04:00,
2013-04-13 11:09:00,85.8,73.6,29.98,ENE,68,11.1,11.6,67,0.00,,---,0.24,VWS V13.01,2013-04-13 15:09:00,
2013-04-13 11:14:00,85.8,73.6,29.98,ENE,68,11.4,11.4,67,0.00,,---,0.24,VWS V13.01,2013-04-13 15:14:00,
2013-04-13 11:19:00,85.8,73.6,29.98,ENE,68,9.6,9.6,67,0.00,,---,0.24,VWS V13.01,2013-04-13 15:19:00,
2013-04-13 11:24:00,85.8,73.6,29.98,NNE,22,9.1,9.1,67,0.00,,---,0.24,VWS V13.01,2013-04-13 15:24:00,
2013-04-13 11:29:00,85.8,73.6,29.98,NNE,22,14.3,14.3,67,0.00,,---,0.24,VWS V13.01,2013-04-13 15:29:00,
2013-04-13 11:34:00,86.1,73.0,29.98,East,90,18.1,18.1,65,0.00,,---,0.24,VWS V13.01,2013-04-13 15:34:00,
2013-04-13 11:40:00,85.6,73.4,29.97,NE,45,7.3,7.3,67,0.00,,---,0.24,VWS V13.01,2013-04-13 15:40:00,
2013-04-13 11:45:00,85.6,73.8,29.97,ENE,68,10.7,10.7,68,0.00,,---,0.24,VWS V13.01,2013-04-13 15:45:00,
2013-04-13 11:50:00,85.8,73.6,29.97,ESE,112,8.9,8.9,67,0.00,,---,0.24,VWS V13.01,2013-04-13 15:50:00,
2013-04-13 11:55:00,85.8,73.1,29.97,East,90,5.3,11.8,66,0.00,,---,0.24,VWS V13.01,2013-04-13 15:55:00,
2013-04-13 12:00:00,85.8,73.1,29.97,ENE,68,8.5,8.5,66,0.00,,---,0.24,VWS V13.01,2013-04-13 16:00:00,
2013-04-13 12:05:00,85.8,73.1,29.97,ENE,68,10.0,10.0,66,0.00,,---,0.24,VWS V13.01,2013-04-13 16:05:00,
2013-04-13 12:10:00,85.6,72.9,29.97,East,90,16.7,16.7,66,0.00,,---,0.24,VWS V13.01,2013-04-13 16:10:00,
2013-04-13 12:15:00,85.1,72.9,29.97,ENE,68,11.8,11.8,67,0.00,,---,0.24,VWS V13.01,2013-04-13 16:15:00,
2013-04-13 12:20:00,84.7,72.5,29.97,ESE,112,8.7,8.7,67,0.00,,---,0.24,VWS V13.01,2013-04-13 16:20:00,
2013-04-13 12:25:00,84.7,73.0,29.96,ENE,68,5.8,5.8,68,0.00,,---,0.24,VWS V13.01,2013-04-13 16:25:00,
2013-04-13 12:30:00,84.7,73.4,29.96,East,90,6.2,6.2,69,0.00,,---,0.24,VWS V13.01,2013-04-13 16:30:00,
2013-04-13 12:35:00,84.9,73.6,29.96,SE,135,6.9,6.9,69,0.00,,---,0.24,VWS V13.01,2013-04-13 16:35:00,
2013-04-13 12:40:00,85.6,73.8,29.96,SE,135,8.0,8.0,68,0.00,,---,0.24,VWS V13.01,2013-04-13 16:40:00,
2013-04-13 12:45:00,85.8,73.6,29.96,East,90,7.6,7.6,67,0.00,,---,0.24,VWS V13.01,2013-04-13 16:45:00,
2013-04-13 12:50:00,85.8,73.6,29.96,SSE,158,7.6,7.6,67,0.00,,---,0.24,VWS V13.01,2013-04-13 16:50:00,
2013-04-13 12:55:00,85.8,73.6,29.97,SSE,158,2.6,2.6,67,0.00,,---,0.24,VWS V13.01,2013-04-13 16:55:00,
2013-04-13 13:00:00,85.1,73.8,29.97,SE,135,5.3,5.3,69,0.02,,---,0.27,VWS V13.01,2013-04-13 17:00:00,
2013-04-13 13:05:00,83.6,73.6,29.97,SE,135,0.0,0.0,72,0.18,,---,0.43,VWS V13.01,2013-04-13 17:05:00,
2013-04-13 13:10:00,82.4,73.3,29.96,NE,45,0.0,0.0,74,0.24,,---,0.49,VWS V13.01,2013-04-13 17:10:00,
2013-04-13 13:16:00,82.0,73.3,29.96,SE,135,0.6,0.6,75,0.26,,---,0.51,VWS V13.01,2013-04-13 17:16:00,
2013-04-13 13:21:00,82.4,74.1,29.96,ENE,68,3.3,3.3,76,0.26,,---,0.51,VWS V13.01,2013-04-13 17:21:00,
2013-04-13 13:27:00,83.1,74.8,29.95,North,0,0.0,0.0,76,0.26,,---,0.51,VWS V13.01,2013-04-13 17:27:00,
2013-04-13 13:32:00,84.3,75.5,29.95,NE,45,0.0,2.4,75,0.26,,---,0.51,VWS V13.01,2013-04-13 17:32:00,
2013-04-13 13:37:00,85.1,75.5,29.95,East,90,6.2,6.2,73,0.26,,---,0.51,VWS V13.01,2013-04-13 17:37:00,
2013-04-13 13:42:00,85.8,75.7,29.94,ENE,68,2.6,2.6,72,0.26,,---,0.51,VWS V13.01,2013-04-13 17:42:00,
2013-04-13 13:47:00,86.1,75.2,29.93,NE,45,15.2,15.2,70,0.26,,---,0.51,VWS V13.01,2013-04-13 17:47:00,
2013-04-13 13:52:00,85.8,74.5,29.94,East,90,2.2,2.2,69,0.26,,---,0.51,VWS V13.01,2013-04-13 17:52:00,
2013-04-13 13:57:00,85.6,73.8,29.93,ESE,112,2.4,2.4,68,0.26,,---,0.51,VWS V13.01,2013-04-13 17:57:00,
2013-04-13 14:02:00,84.9,73.6,29.93,ENE,68,6.0,6.0,69,0.18,,---,0.51,VWS V13.01,2013-04-13 18:02:00,
2013-04-13 14:08:00,84.3,73.9,29.93,ESE,112,6.9,6.9,71,0.02,,---,0.51,VWS V13.01,2013-04-13 18:08:00,
2013-04-13 14:13:00,84.3,74.3,29.92,SSW,202,4.0,6.0,72,0.02,,---,0.51,VWS V13.01,2013-04-13 18:13:00,
2013-04-13 14:18:00,84.7,74.7,29.92,NNE,22,3.8,3.8,72,0.00,,---,0.51,VWS V13.01,2013-04-13 18:18:00,
2013-04-13 14:23:00,84.7,74.3,29.92,ENE,68,2.2,2.2,71,0.00,,---,0.51,VWS V13.01,2013-04-13 18:23:00,
2013-04-13 14:27:00,84.9,74.4,29.92,ENE,68,8.9,8.9,71,0.00,,---,0.51,VWS V13.01,2013-04-13 18:27:00,
2013-04-13 14:32:00,85.1,73.4,29.92,ENE,68,1.5,1.5,68,0.00,,---,0.51,VWS V13.01,2013-04-13 18:32:00,
2013-04-13 14:37:00,84.7,74.3,29.92,SE,135,4.0,4.0,71,0.04,,---,0.55,VWS V13.01,2013-04-13 18:37:00,
2013-04-13 14:42:00,83.6,74.0,29.92,SE,135,0.0,0.0,73,0.06,,---,0.57,VWS V13.01,2013-04-13 18:42:00,
2013-04-13 14:47:00,83.8,74.6,29.92,SE,135,7.8,7.8,74,0.06,,---,0.57,VWS V13.01,2013-04-13 18:47:00,
2013-04-13 14:52:00,84.0,74.4,29.91,East,90,0.0,0.0,73,0.06,,---,0.57,VWS V13.01,2013-04-13 18:52:00,
2013-04-13 14:57:00,84.9,75.3,29.91,ENE,68,4.6,4.6,73,0.06,,---,0.57,VWS V13.01,2013-04-13 18:57:00,
2013-04-13 15:02:00,85.2,75.2,29.91,SE,135,3.8,3.8,72,0.06,,---,0.57,VWS V13.01,2013-04-13 19:02:00,
2013-04-13 15:08:00,85.6,74.7,29.91,SE,135,4.2,4.2,70,0.06,,---,0.57,VWS V13.01,2013-04-13 19:08:00,
2013-04-13 15:13:00,85.6,74.3,29.91,NE,45,0.0,0.0,69,0.06,,---,0.57,VWS V13.01,2013-04-13 19:13:00,
2013-04-13 15:18:00,85.8,74.0,29.91,NE,45,0.0,0.0,68,0.06,,---,0.57,VWS V13.01,2013-04-13 19:18:00,
2013-04-13 15:23:00,86.7,74.4,29.91,ENE,68,2.4,2.4,67,0.06,,---,0.57,VWS V13.01,2013-04-13 19:23:00,
2013-04-13 15:28:00,86.7,74.0,29.91,ENE,68,5.1,5.1,66,0.06,,---,0.57,VWS V13.01,2013-04-13 19:28:00,
2013-04-13 15:33:00,87.0,74.3,29.90,ENE,68,6.7,6.7,66,0.04,,---,0.57,VWS V13.01,2013-04-13 19:33:00,
2013-04-13 15:38:00,87.6,74.4,29.90,ENE,68,12.0,12.0,65,0.00,,---,0.57,VWS V13.01,2013-04-13 19:38:00,
2013-04-13 15:43:00,87.0,73.8,29.90,East,90,11.6,11.6,65,0.00,,---,0.57,VWS V13.01,2013-04-13 19:43:00,
2013-04-13 15:48:00,86.5,74.2,29.90,ENE,68,0.0,0.0,67,0.00,,---,0.57,VWS V13.01,2013-04-13 19:48:00,
2013-04-13 15:53:00,86.1,73.9,29.90,ENE,68,7.8,7.8,67,0.00,,---,0.57,VWS V13.01,2013-04-13 19:53:00,
2013-04-13 15:58:00,85.8,74.0,29.90,ENE,68,6.4,6.4,68,0.00,,---,0.57,VWS V13.01,2013-04-13 19:58:00,
2013-04-13 16:03:00,86.1,74.3,29.91,ENE,68,10.7,10.7,68,0.00,,---,0.57,VWS V13.01,2013-04-13 20:03:00,
2013-04-13 16:08:00,86.9,75.1,29.90,East,90,9.8,9.8,68,0.00,,---,0.57,VWS V13.01,2013-04-13 20:08:00,
2013-04-13 16:13:00,87.6,75.3,29.90,East,90,10.5,10.5,67,0.00,,---,0.57,VWS V13.01,2013-04-13 20:13:00,
2013-04-13 16:18:00,87.6,74.8,29.90,ESE,112,6.9,6.9,66,0.00,,---,0.57,VWS V13.01,2013-04-13 20:18:00,
2013-04-13 16:23:00,87.6,75.3,29.90,East,90,5.1,5.1,67,0.00,,---,0.57,VWS V13.01,2013-04-13 20:23:00,
2013-04-13 16:28:00,88.1,75.3,29.89,ENE,68,3.8,3.8,66,0.00,,---,0.57,VWS V13.01,2013-04-13 20:28:00,
2013-04-13 16:33:00,88.5,75.7,29.90,ENE,68,16.7,16.7,66,0.00,,---,0.57,VWS V13.01,2013-04-13 20:33:00,
2013-04-13 16:38:00,88.5,75.2,29.90,East,90,4.9,4.9,65,0.00,,---,0.57,VWS V13.01,2013-04-13 20:38:00,
2013-04-13 16:43:00,88.7,74.5,29.89,ENE,68,14.0,14.0,63,0.00,,---,0.57,VWS V13.01,2013-04-13 20:43:00,
2013-04-13 16:48:00,88.7,74.5,29.90,SSE,158,5.3,5.3,63,0.00,,---,0.57,VWS V13.01,2013-04-13 20:48:00,
2013-04-13 16:53:00,89.0,74.8,29.90,South,180,11.4,11.4,63,0.00,,---,0.57,VWS V13.01,2013-04-13 20:53:00,
2013-04-13 16:58:00,89.0,74.8,29.90,ENE,68,20.3,20.3,63,0.00,,---,0.57,VWS V13.01,2013-04-13 20:58:00,
2013-04-13 17:03:00,89.2,75.4,29.90,East,90,8.5,8.5,64,0.00,,---,0.57,VWS V13.01,2013-04-13 21:03:00,
2013-04-13 17:08:00,89.2,75.4,29.90,ENE,68,5.1,5.1,64,0.00,,---,0.57,VWS V13.01,2013-04-13 21:08:00,
2013-04-13 17:13:00,89.0,75.2,29.90,SE,135,4.4,4.4,64,0.00,,---,0.57,VWS V13.01,2013-04-13 21:13:00,
2013-04-13 17:18:00,89.2,75.0,29.90,ENE,68,2.4,2.4,63,0.00,,---,0.57,VWS V13.01,2013-04-13 21:18:00,
2013-04-13 17:23:00,88.8,74.1,29.90,SE,135,5.5,5.5,62,0.00,,---,0.57,VWS V13.01,2013-04-13 21:23:00,
2013-04-13 17:28:00,88.8,73.6,29.90,ENE,68,4.9,4.9,61,0.00,,---,0.57,VWS V13.01,2013-04-13 21:28:00,
2013-04-13 17:33:00,88.7,73.5,29.90,SSE,158,6.2,6.2,61,0.00,,---,0.57,VWS V13.01,2013-04-13 21:33:00,
2013-04-13 17:38:00,88.1,72.5,29.90,SE,135,3.3,3.3,60,0.00,,---,0.57,VWS V13.01,2013-04-13 21:38:00,
2013-04-13 17:43:00,87.2,71.6,29.91,East,90,7.1,7.1,60,0.00,,---,0.57,VWS V13.01,2013-04-13 21:43:00,
2013-04-13 17:48:00,86.5,71.5,29.90,East,90,2.4,2.4,61,0.00,,---,0.57,VWS V13.01,2013-04-13 21:48:00,
2013-04-13 17:53:00,86.0,71.5,29.90,NE,45,4.2,4.2,62,0.00,,---,0.57,VWS V13.01,2013-04-13 21:53:00,
2013-04-13 17:58:00,85.6,71.1,29.90,ENE,68,4.4,4.4,62,0.00,,---,0.57,VWS V13.01,2013-04-13 21:58:00,
2013-04-13 18:03:00,85.2,71.2,29.91,SE,135,0.0,0.0,63,0.00,,---,0.57,VWS V13.01,2013-04-13 22:03:00,
2013-04-13 18:08:00,85.1,71.6,29.90,SE,135,1.1,1.1,64,0.00,,---,0.57,VWS V13.01,2013-04-13 22:08:00,
2013-04-13 18:13:00,84.9,71.4,29.91,ENE,68,1.3,1.3,64,0.00,,---,0.57,VWS V13.01,2013-04-13 22:13:00,
2013-04-13 18:18:00,84.7,71.2,29.91,ENE,68,5.1,5.1,64,0.00,,---,0.57,VWS V13.01,2013-04-13 22:18:00,
2013-04-13 18:23:00,84.3,71.3,29.92,ENE,68,4.0,4.0,65,0.00,,---,0.57,VWS V13.01,2013-04-13 22:23:00,
2013-04-13 18:28:00,84.3,71.7,29.91,East,90,6.0,6.0,66,0.00,,---,0.57,VWS V13.01,2013-04-13 22:28:00,
2013-04-13 18:33:00,84.0,72.3,29.91,SSE,158,6.0,6.0,68,0.00,,---,0.57,VWS V13.01,2013-04-13 22:33:00,
2013-04-13 18:38:00,83.8,72.6,29.91,East,90,0.0,0.0,69,0.00,,---,0.57,VWS V13.01,2013-04-13 22:38:00,
2013-04-13 18:43:00,83.4,72.6,29.91,SE,135,2.9,2.9,70,0.00,,---,0.57,VWS V13.01,2013-04-13 22:43:00,
2013-04-13 18:48:00,83.3,72.9,29.92,SSE,158,0.0,0.0,71,0.00,,---,0.57,VWS V13.01,2013-04-13 22:48:00,
2013-04-13 18:53:00,83.1,72.7,29.91,SE,135,0.0,0.0,71,0.00,,---,0.57,VWS V13.01,2013-04-13 22:53:00,
2013-04-13 18:58:00,82.9,72.5,29.91,ENE,68,0.0,0.0,71,0.00,,---,0.57,VWS V13.01,2013-04-13 22:58:00,
2013-04-13 19:03:00,82.7,72.3,29.91,SSE,158,2.4,2.4,71,0.00,,---,0.57,VWS V13.01,2013-04-13 23:03:00,
2013-04-13 19:08:00,82.5,72.6,29.92,ESE,112,2.2,2.2,72,0.00,,---,0.57,VWS V13.01,2013-04-13 23:08:00,
2013-04-13 19:13:00,82.2,72.3,29.93,ENE,68,4.9,4.9,72,0.00,,---,0.57,VWS V13.01,2013-04-13 23:13:00,
2013-04-13 19:17:00,82.2,72.3,29.93,SE,135,3.1,3.1,72,0.00,,---,0.57,VWS V13.01,2013-04-13 23:17:00,
2013-04-13 19:22:00,82.2,72.3,29.93,ESE,112,4.2,4.2,72,0.00,,---,0.57,VWS V13.01,2013-04-13 23:22:00,
2013-04-13 19:27:00,82.0,72.1,29.93,East,90,2.0,2.0,72,0.00,,---,0.57,VWS V13.01,2013-04-13 23:27:00,
2013-04-13 19:32:00,82.0,72.5,29.93,ESE,112,6.7,6.7,73,0.00,,---,0.57,VWS V13.01,2013-04-13 23:32:00,
2013-04-13 19:37:00,82.0,72.5,29.93,ESE,112,8.5,8.5,73,0.00,,---,0.57,VWS V13.01,2013-04-13 23:37:00,
2013-04-13 19:42:00,81.6,72.5,29.94,NE,45,3.3,3.3,74,0.00,,---,0.57,VWS V13.01,2013-04-13 23:42:00,
2013-04-13 19:47:00,81.6,72.5,29.94,ESE,112,1.5,1.5,74,0.00,,---,0.57,VWS V13.01,2013-04-13 23:47:00,
2013-04-13 19:52:00,81.6,72.5,29.94,ESE,112,3.1,3.1,74,0.00,,---,0.57,VWS V13.01,2013-04-13 23:52:00,
2013-04-13 19:57:00,81.6,72.5,29.94,SSE,158,0.0,0.0,74,0.00,,---,0.57,VWS V13.01,2013-04-13 23:57:00,
2013-04-13 20:02:00,81.6,72.5,29.94,ESE,112,0.0,0.0,74,0.00,,---,0.57,VWS V13.01,2013-04-14 00:02:00,
2013-04-13 20:07:00,81.5,72.4,29.94,East,90,1.3,1.3,74,0.00,,---,0.57,VWS V13.01,2013-04-14 00:07:00,
2013-04-13 20:12:00,81.6,72.5,29.94,SE,135,5.5,5.5,74,0.00,,---,0.57,VWS V13.01,2013-04-14 00:12:00,
2013-04-13 20:18:00,81.5,72.4,29.94,East,90,0.0,0.0,74,0.00,,---,0.57,VWS V13.01,2013-04-14 00:18:00,
2013-04-13 20:23:00,81.5,72.4,29.95,SE,135,2.0,2.0,74,0.00,,---,0.57,VWS V13.01,2013-04-14 00:23:00,
2013-04-13 20:28:00,81.5,72.4,29.95,ENE,68,2.0,2.0,74,0.00,,---,0.57,VWS V13.01,2013-04-14 00:28:00,
2013-04-13 20:33:00,81.3,72.6,29.95,SE,135,2.2,2.2,75,0.00,,---,0.57,VWS V13.01,2013-04-14 00:33:00,
2013-04-13 20:38:00,81.3,72.6,29.95,SE,135,0.6,0.6,75,0.00,,---,0.57,VWS V13.01,2013-04-14 00:38:00,
2013-04-13 20:43:00,81.1,72.4,29.95,SE,135,4.6,4.6,75,0.00,,---,0.57,VWS V13.01,2013-04-14 00:43:00,
2013-04-13 20:48:00,81.1,72.4,29.95,East,90,0.0,0.0,75,0.00,,---,0.57,VWS V13.01,2013-04-14 00:48:00,
2013-04-13 20:53:00,81.1,72.4,29.95,East,90,0.0,0.0,75,0.00,,---,0.57,VWS V13.01,2013-04-14 00:53:00,
2013-04-13 20:58:00,81.1,72.4,29.95,ESE,112,0.0,0.0,75,0.00,,---,0.57,VWS V13.01,2013-04-14 00:58:00,
2013-04-13 21:03:00,81.1,72.0,29.95,SE,135,2.2,2.2,74,0.00,,---,0.57,VWS V13.01,2013-04-14 01:03:00,
2013-04-13 21:08:00,81.1,72.0,29.95,NE,45,4.6,4.6,74,0.00,,---,0.57,VWS V13.01,2013-04-14 01:08:00,
2013-04-13 21:13:00,80.9,72.2,29.96,North,0,5.8,5.8,75,0.00,,---,0.57,VWS V13.01,2013-04-14 01:13:00,
2013-04-13 21:18:00,80.9,71.8,29.96,East,90,0.0,0.0,74,0.00,,---,0.57,VWS V13.01,2013-04-14 01:18:00,
2013-04-13 21:23:00,80.7,71.7,29.96,ESE,112,2.2,2.2,74,0.00,,---,0.57,VWS V13.01,2013-04-14 01:23:00,
2013-04-13 21:28:00,80.7,71.7,29.96,ESE,112,1.7,1.7,74,0.00,,---,0.57,VWS V13.01,2013-04-14 01:28:00,
2013-04-13 21:33:00,80.6,71.9,29.96,SE,135,1.3,1.3,75,0.00,,---,0.57,VWS V13.01,2013-04-14 01:33:00,
2013-04-13 21:38:00,80.4,71.4,29.96,ENE,68,1.5,1.5,74,0.00,,---,0.57,VWS V13.01,2013-04-14 01:38:00,
2013-04-13 21:43:00,80.4,71.4,29.97,SE,135,2.4,2.4,74,0.00,,---,0.57,VWS V13.01,2013-04-14 01:43:00,
2013-04-13 21:48:00,80.4,71.4,29.97,ESE,112,0.0,0.0,74,0.00,,---,0.57,VWS V13.01,2013-04-14 01:48:00,
2013-04-13 21:53:00,80.4,71.8,29.97,SE,135,0.0,0.0,75,0.00,,---,0.57,VWS V13.01,2013-04-14 01:53:00,
2013-04-13 21:58:00,80.4,71.8,29.97,South,180,1.5,1.5,75,0.00,,---,0.57,VWS V13.01,2013-04-14 01:58:00,
2013-04-13 22:03:00,80.2,71.6,29.97,SE,135,0.0,0.0,75,0.00,,---,0.57,VWS V13.01,2013-04-14 02:03:00,
2013-04-13 22:08:00,80.2,71.6,29.96,East,90,0.0,0.0,75,0.00,,---,0.57,VWS V13.01,2013-04-14 02:08:00,
2013-04-13 22:13:00,80.2,71.6,29.97,ESE,112,0.0,0.0,75,0.00,,---,0.57,VWS V13.01,2013-04-14 02:13:00,
2013-04-13 22:18:00,80.0,71.4,29.98,SE,135,1.7,1.7,75,0.00,,---,0.57,VWS V13.01,2013-04-14 02:18:00,
2013-04-13 22:23:00,79.8,71.2,29.98,ENE,68,2.0,2.0,75,0.00,,---,0.57,VWS V13.01,2013-04-14 02:23:00,
2013-04-13 22:28:00,79.8,71.2,29.98,East,90,2.9,2.9,75,0.00,,---,0.57,VWS V13.01,2013-04-14 02:28:00,
2013-04-13 22:33:00,79.8,71.2,29.98,SE,135,3.8,3.8,75,0.00,,---,0.57,VWS V13.01,2013-04-14 02:33:00,
2013-04-13 22:38:00,79.7,71.1,29.98,SSE,158,0.0,0.0,75,0.00,,---,0.57,VWS V13.01,2013-04-14 02:38:00,
2013-04-13 22:43:00,79.7,71.1,29.98,SE,135,2.4,2.4,75,0.00,,---,0.57,VWS V13.01,2013-04-14 02:43:00,
2013-04-13 22:48:00,79.7,71.1,29.98,SE,135,2.9,2.9,75,0.00,,---,0.57,VWS V13.01,2013-04-14 02:48:00,
2013-04-13 22:53:00,79.5,70.9,29.97,South,180,1.3,1.3,75,0.00,,---,0.57,VWS V13.01,2013-04-14 02:53:00,
2013-04-13 22:58:00,79.5,71.3,29.97,SE,135,2.4,4.0,76,0.00,,---,0.57,VWS V13.01,2013-04-14 02:58:00,
2013-04-13 23:03:00,79.5,71.3,29.97,SE,135,4.2,4.2,76,0.00,,---,0.57,VWS V13.01,2013-04-14 03:03:00,
2013-04-13 23:08:00,79.5,71.3,29.97,SE,135,1.1,1.1,76,0.00,,---,0.57,VWS V13.01,2013-04-14 03:08:00,
2013-04-13 23:13:00,79.5,71.3,29.97,ESE,112,0.0,0.0,76,0.00,,---,0.57,VWS V13.01,2013-04-14 03:13:00,
2013-04-13 23:18:00,79.5,71.3,29.97,SE,135,0.0,3.8,76,0.00,,---,0.57,VWS V13.01,2013-04-14 03:18:00,
2013-04-13 23:23:00,79.5,71.3,29.97,ESE,112,0.0,0.0,76,0.00,,---,0.57,VWS V13.01,2013-04-14 03:23:00,
2013-04-13 23:28:00,79.3,71.1,29.96,SSE,158,1.3,1.3,76,0.00,,---,0.57,VWS V13.01,2013-04-14 03:28:00,
2013-04-13 23:33:00,79.3,71.1,29.97,East,90,0.0,2.9,76,0.00,,---,0.57,VWS V13.01,2013-04-14 03:33:00,
2013-04-13 23:38:00,79.3,71.1,29.96,SE,135,0.0,0.0,76,0.00,,---,0.57,VWS V13.01,2013-04-14 03:38:00,
2013-04-13 23:43:00,79.3,71.1,29.96,SSE,158,0.0,0.0,76,0.00,,---,0.57,VWS V13.01,2013-04-14 03:43:00,
2013-04-13 23:48:00,79.3,71.5,29.96,SSE,158,2.2,2.2,77,0.00,,---,0.57,VWS V13.01,2013-04-14 03:48:00,
2013-04-13 23:53:00,79.3,71.8,29.96,East,90,0.0,0.0,78,0.02,,---,0.59,VWS V13.01,2013-04-14 03:53:00,
2013-04-13 23:58:00,79.3,71.8,29.96,ENE,68,0.0,0.0,78,0.02,,---,0.59,VWS V13.01,2013-04-14 03:58:00,